createdAt,value
2019-03-27T00:02:21.934Z,99.90
2019-03-27T00:04:49.125Z,99.90
2019-03-27T00:07:16.301Z,99.90
2019-03-27T00:09:43.744Z,99.90
2019-03-27T00:12:11.190Z,99.90
2019-03-27T00:14:38.565Z,99.90
2019-03-27T00:17:05.804Z,99.90
2019-03-27T00:19:33.076Z,99.90
2019-03-27T00:22:00.376Z,99.90
2019-03-27T00:24:27.583Z,99.90
2019-03-27T00:26:54.765Z,99.90
2019-03-27T00:29:22.016Z,99.90
2019-03-27T00:31:49.388Z,99.90
2019-03-27T00:34:16.537Z,99.90
2019-03-27T00:36:43.734Z,99.90
2019-03-27T00:39:10.922Z,99.90
2019-03-27T00:41:38.109Z,99.90
2019-03-27T00:44:05.455Z,99.90
2019-03-27T00:46:32.621Z,99.90
2019-03-27T00:48:59.873Z,99.90
2019-03-27T00:51:27.056Z,99.90
2019-03-27T00:53:54.216Z,99.90
2019-03-27T00:56:21.677Z,99.90
2019-03-27T00:58:48.861Z,99.90
2019-03-27T01:01:16.397Z,99.90
2019-03-27T01:03:43.864Z,99.90
2019-03-27T01:06:11.703Z,99.90
2019-03-27T01:08:39.028Z,99.90
2019-03-27T01:11:06.444Z,99.90
2019-03-27T01:13:33.966Z,99.90
2019-03-27T01:16:01.336Z,99.90
2019-03-27T01:18:28.488Z,99.90
2019-03-27T01:20:55.756Z,99.90
2019-03-27T01:23:23.013Z,99.90
2019-03-27T01:25:50.301Z,99.90
2019-03-27T01:28:17.443Z,99.90
2019-03-27T01:30:44.625Z,99.90
2019-03-27T01:33:12.088Z,99.90
2019-03-27T01:35:39.273Z,99.90
2019-03-27T01:38:06.419Z,99.90
2019-03-27T01:40:34.460Z,99.90
2019-03-27T01:43:01.591Z,99.90
2019-03-27T01:45:28.756Z,99.90
2019-03-27T01:47:55.935Z,99.90
2019-03-27T01:50:23.109Z,99.90
2019-03-27T01:52:50.643Z,99.90
2019-03-27T01:55:17.832Z,99.90
2019-03-27T01:57:45.056Z,99.90
2019-03-27T02:00:12.517Z,99.90
2019-03-27T02:02:39.707Z,99.90
2019-03-27T02:05:07.335Z,99.90
2019-03-27T02:07:34.550Z,99.90
2019-03-27T02:10:01.827Z,99.90
2019-03-27T02:12:29.081Z,99.90
2019-03-27T02:14:56.244Z,99.90
2019-03-27T02:17:23.872Z,99.90
2019-03-27T02:19:51.000Z,99.90
2019-03-27T02:22:18.172Z,99.90
2019-03-27T02:24:45.391Z,99.90
2019-03-27T02:27:12.827Z,99.90
2019-03-27T02:29:40.023Z,99.90
2019-03-27T02:32:07.180Z,99.90
2019-03-27T02:34:34.328Z,99.90
2019-03-27T02:37:01.510Z,99.90
2019-03-27T02:39:28.653Z,99.90
2019-03-27T02:41:55.912Z,99.90
2019-03-27T02:44:23.187Z,99.90
2019-03-27T02:46:50.844Z,99.90
2019-03-27T02:49:17.977Z,99.90
2019-03-27T02:51:45.237Z,99.90
2019-03-27T02:54:12.587Z,99.90
2019-03-27T02:56:39.717Z,99.90
2019-03-27T02:59:06.915Z,99.90
2019-03-27T03:01:34.108Z,99.90
2019-03-27T03:04:01.244Z,99.90
2019-03-27T03:06:28.393Z,99.90
2019-03-27T03:08:55.577Z,99.90
2019-03-27T03:11:22.824Z,99.90
2019-03-27T03:13:50.364Z,99.90
2019-03-27T03:16:17.489Z,99.90
2019-03-27T03:18:45.180Z,99.90
2019-03-27T03:21:12.386Z,99.90
2019-03-27T03:23:39.550Z,99.90
2019-03-27T03:26:06.684Z,99.90
2019-03-27T03:28:34.127Z,99.90
2019-03-27T03:31:01.349Z,99.90
2019-03-27T03:33:28.477Z,99.90
2019-03-27T03:35:56.096Z,99.90
2019-03-27T03:38:23.537Z,99.90
2019-03-27T03:40:50.796Z,99.90
2019-03-27T03:43:17.973Z,99.90
2019-03-27T03:45:45.172Z,99.90
2019-03-27T03:48:12.336Z,99.90
2019-03-27T03:50:41.060Z,99.90
2019-03-27T03:53:10.498Z,99.90
2019-03-27T03:55:38.044Z,99.90
2019-03-27T03:58:07.539Z,99.90
2019-03-27T04:00:34.960Z,99.90
2019-03-27T04:03:03.835Z,99.90
2019-03-27T04:05:30.977Z,99.90
2019-03-27T04:07:58.159Z,99.90
2019-03-27T04:10:25.433Z,99.90
2019-03-27T04:12:54.792Z,99.90
2019-03-27T04:15:22.535Z,99.90
2019-03-27T04:17:49.666Z,99.90
2019-03-27T04:20:16.949Z,99.90
2019-03-27T04:22:44.209Z,99.90
2019-03-27T04:25:11.375Z,99.90
2019-03-27T04:27:38.535Z,99.90
2019-03-27T04:30:06.419Z,99.90
2019-03-27T04:32:33.556Z,99.90
2019-03-27T04:35:00.713Z,99.90
2019-03-27T04:37:27.923Z,99.90
2019-03-27T04:39:55.068Z,99.90
2019-03-27T04:42:22.641Z,99.90
2019-03-27T04:44:49.801Z,99.90
2019-03-27T04:47:31.574Z,99.90
2019-03-27T04:49:46.803Z,99.90
2019-03-27T04:52:13.957Z,99.90
2019-03-27T04:54:41.388Z,99.90
2019-03-27T04:57:08.539Z,99.90
2019-03-27T04:59:35.667Z,99.90
2019-03-27T05:02:02.900Z,99.90
2019-03-27T05:04:30.417Z,99.90
2019-03-27T05:06:57.539Z,99.90
2019-03-27T05:09:24.671Z,99.90
2019-03-27T05:11:52.050Z,99.90
2019-03-27T05:14:19.208Z,99.90
2019-03-27T05:16:46.464Z,99.90
2019-03-27T05:19:13.629Z,99.90
2019-03-27T05:21:41.059Z,99.90
2019-03-27T05:24:08.189Z,99.90
2019-03-27T05:26:35.367Z,99.90
2019-03-27T05:29:02.633Z,99.90
2019-03-27T05:31:30.033Z,99.90
2019-03-27T05:33:57.246Z,99.90
2019-03-27T05:36:24.477Z,99.90
2019-03-27T05:38:51.635Z,99.90
2019-03-27T05:41:19.170Z,99.90
2019-03-27T05:43:46.375Z,99.90
2019-03-27T05:46:13.548Z,99.90
2019-03-27T05:48:40.766Z,99.90
2019-03-27T05:51:07.925Z,99.90
2019-03-27T05:53:35.360Z,99.90
2019-03-27T05:56:02.595Z,99.90
2019-03-27T05:58:29.832Z,99.90
2019-03-27T06:00:56.992Z,99.90
2019-03-27T06:03:24.176Z,99.90
2019-03-27T06:05:51.380Z,99.90
2019-03-27T06:08:18.547Z,99.90
2019-03-27T06:10:45.993Z,99.90
2019-03-27T06:13:13.160Z,99.90
2019-03-27T06:15:40.292Z,99.90
2019-03-27T06:18:13.078Z,99.90
2019-03-27T06:20:36.479Z,99.90
2019-03-27T06:23:03.716Z,99.90
2019-03-27T06:25:30.922Z,99.90
2019-03-27T06:27:58.303Z,99.90
2019-03-27T06:30:25.472Z,99.90
2019-03-27T06:32:52.719Z,99.90
2019-03-27T06:35:20.391Z,99.90
2019-03-27T06:37:47.713Z,99.90
2019-03-27T06:40:14.892Z,99.90
2019-03-27T06:42:42.053Z,99.90
2019-03-27T06:45:11.653Z,99.90
2019-03-27T06:47:38.828Z,99.90
2019-03-27T06:50:06.549Z,99.90
2019-03-27T06:52:34.070Z,99.90
2019-03-27T06:55:01.512Z,99.90
2019-03-27T06:57:28.744Z,99.90
2019-03-27T06:59:56.393Z,99.90
2019-03-27T07:02:23.594Z,99.90
2019-03-27T07:04:50.757Z,99.90
2019-03-27T07:07:17.935Z,99.90
2019-03-27T07:09:45.121Z,99.90
2019-03-27T07:12:20.926Z,99.90
2019-03-27T07:14:41.360Z,99.90
2019-03-27T07:17:08.561Z,99.90
2019-03-27T07:19:35.758Z,99.90
2019-03-27T07:22:03.037Z,99.90
2019-03-27T07:24:30.254Z,99.90
2019-03-27T07:26:57.443Z,98.70
2019-03-27T07:29:24.650Z,96.70
2019-03-27T07:31:51.825Z,96.80
2019-03-27T07:34:19.072Z,94.80
2019-03-27T07:36:46.241Z,95.70
2019-03-27T07:39:13.368Z,94.20
2019-03-27T07:41:40.558Z,95.30
2019-03-27T07:44:07.832Z,93.90
2019-03-27T07:46:35.112Z,93.50
2019-03-27T07:49:02.287Z,93.10
2019-03-27T07:51:29.506Z,91.90
2019-03-27T07:53:56.684Z,88.40
2019-03-27T07:56:24.169Z,88.90
2019-03-27T07:58:51.367Z,88.90
2019-03-27T08:01:18.560Z,89.90
2019-03-27T08:03:45.722Z,88.50
2019-03-27T08:06:12.976Z,87.00
2019-03-27T08:08:40.117Z,82.40
2019-03-27T08:11:07.309Z,80.00
2019-03-27T08:13:34.470Z,80.00
2019-03-27T08:16:01.649Z,80.10
2019-03-27T08:18:29.029Z,82.10
2019-03-27T08:20:56.155Z,82.30
2019-03-27T08:23:23.393Z,83.10
2019-03-27T08:25:50.589Z,84.60
2019-03-27T08:28:17.765Z,86.10
2019-03-27T08:30:44.947Z,86.90
2019-03-27T08:33:12.386Z,87.40
2019-03-27T08:35:39.532Z,87.50
2019-03-27T08:38:06.706Z,87.30
2019-03-27T08:40:33.989Z,86.40
2019-03-27T08:43:01.133Z,86.80
2019-03-27T08:45:28.364Z,87.80
2019-03-27T08:47:55.549Z,87.30
2019-03-27T08:50:23.389Z,87.40
2019-03-27T08:52:50.711Z,88.00
2019-03-27T08:55:17.861Z,88.00
2019-03-27T08:57:45.041Z,89.00
2019-03-27T09:00:13.673Z,87.00
2019-03-27T09:02:40.949Z,84.80
2019-03-27T09:05:09.204Z,84.00
2019-03-27T09:07:36.611Z,85.30
2019-03-27T09:10:05.420Z,85.60
2019-03-27T09:12:32.899Z,86.70
2019-03-27T09:15:00.103Z,87.20
2019-03-27T09:17:27.673Z,87.70
2019-03-27T09:19:54.843Z,86.20
2019-03-27T09:22:22.001Z,86.80
2019-03-27T09:24:51.179Z,86.80
2019-03-27T09:27:18.348Z,86.10
2019-03-27T09:29:45.752Z,84.70
2019-03-27T09:32:12.963Z,86.40
2019-03-27T09:34:40.143Z,86.10
2019-03-27T09:37:07.321Z,85.80
2019-03-27T09:39:34.500Z,82.30
2019-03-27T09:42:01.740Z,78.20
2019-03-27T09:44:29.029Z,73.90
2019-03-27T09:46:56.581Z,71.90
2019-03-27T09:49:23.808Z,72.60
2019-03-27T09:51:51.002Z,72.70
2019-03-27T09:54:18.132Z,73.80
2019-03-27T09:56:45.370Z,73.70
2019-03-27T09:59:12.618Z,75.70
2019-03-27T10:01:39.751Z,77.60
2019-03-27T10:04:07.564Z,79.30
2019-03-27T10:06:34.717Z,79.20
2019-03-27T10:09:03.607Z,79.90
2019-03-27T10:11:30.836Z,79.50
2019-03-27T10:13:58.004Z,81.30
2019-03-27T10:16:25.156Z,80.70
2019-03-27T10:18:52.306Z,79.50
2019-03-27T10:21:19.490Z,79.00
2019-03-27T10:23:46.673Z,79.30
2019-03-27T10:26:13.849Z,78.70
2019-03-27T10:28:41.054Z,80.00
2019-03-27T10:31:08.207Z,81.30
2019-03-27T10:33:35.572Z,80.30
2019-03-27T10:36:02.779Z,80.00
2019-03-27T10:38:29.942Z,80.20
2019-03-27T10:40:57.125Z,79.60
2019-03-27T10:43:24.329Z,81.60
2019-03-27T10:45:51.886Z,82.10
2019-03-27T10:48:19.085Z,82.60
2019-03-27T10:50:46.369Z,81.10
2019-03-27T10:53:13.532Z,79.20
2019-03-27T10:55:40.742Z,78.90
2019-03-27T10:58:07.991Z,77.60
2019-03-27T11:00:35.506Z,75.80
2019-03-27T11:03:02.864Z,76.40
2019-03-27T11:05:30.045Z,77.00
2019-03-27T11:07:57.296Z,77.70
2019-03-27T11:10:24.453Z,77.30
2019-03-27T11:12:51.659Z,76.80
2019-03-27T11:15:19.259Z,75.10
2019-03-27T11:17:46.531Z,74.00
2019-03-27T11:20:14.380Z,74.90
2019-03-27T11:22:41.555Z,76.40
2019-03-27T11:25:09.235Z,76.00
2019-03-27T11:27:36.415Z,75.80
2019-03-27T11:30:04.437Z,75.90
2019-03-27T11:32:31.630Z,77.40
2019-03-27T11:34:58.969Z,77.70
2019-03-27T11:37:26.165Z,77.90
2019-03-27T11:39:53.350Z,76.90
2019-03-27T11:42:20.537Z,78.40
2019-03-27T11:44:47.668Z,78.50
2019-03-27T11:47:14.959Z,76.30
2019-03-27T11:49:42.128Z,73.30
2019-03-27T11:52:09.464Z,73.60
2019-03-27T11:54:36.659Z,74.10
2019-03-27T11:57:04.194Z,73.50
2019-03-27T11:59:31.421Z,75.70
2019-03-27T12:01:58.584Z,77.10
2019-03-27T12:04:25.804Z,78.00
2019-03-27T12:06:53.007Z,78.30
2019-03-27T12:09:20.273Z,78.40
2019-03-27T12:11:47.482Z,77.70
2019-03-27T12:14:15.973Z,74.80
2019-03-27T12:16:43.141Z,73.50
2019-03-27T12:19:10.561Z,69.60
2019-03-27T12:21:37.716Z,69.30
2019-03-27T12:24:04.893Z,71.40
2019-03-27T12:26:32.078Z,71.30
2019-03-27T12:28:59.382Z,71.50
2019-03-27T12:31:26.567Z,73.50
2019-03-27T12:33:53.918Z,74.80
2019-03-27T12:36:21.082Z,76.90
2019-03-27T12:38:48.924Z,76.50
2019-03-27T12:41:16.082Z,76.90
2019-03-27T12:43:43.305Z,76.70
2019-03-27T12:46:10.450Z,76.90
2019-03-27T12:48:37.609Z,77.30
2019-03-27T12:51:12.857Z,76.90
2019-03-27T12:53:34.231Z,75.30
2019-03-27T12:56:02.441Z,75.00
2019-03-27T12:58:30.030Z,75.50
2019-03-27T13:00:57.308Z,74.10
2019-03-27T13:03:24.723Z,74.70
2019-03-27T13:05:53.421Z,73.00
2019-03-27T13:08:20.581Z,74.00
2019-03-27T13:10:47.783Z,73.70
2019-03-27T13:13:15.315Z,72.70
2019-03-27T13:15:42.602Z,73.10
2019-03-27T13:18:09.785Z,73.30
2019-03-27T13:20:36.952Z,73.20
2019-03-27T13:23:04.218Z,74.80
2019-03-27T13:25:31.499Z,77.10
2019-03-27T13:27:58.827Z,80.40
2019-03-27T13:30:26.051Z,80.70
2019-03-27T13:32:53.246Z,80.50
2019-03-27T13:35:20.480Z,80.50
2019-03-27T13:37:47.654Z,80.00
2019-03-27T13:40:16.409Z,80.70
2019-03-27T13:42:43.849Z,84.10
2019-03-27T13:45:12.484Z,89.20
2019-03-27T13:47:39.865Z,89.90
2019-03-27T13:50:12.587Z,88.80
2019-03-27T13:52:38.570Z,89.30
2019-03-27T13:55:07.097Z,93.10
2019-03-27T13:57:34.835Z,91.60
2019-03-27T14:00:03.422Z,90.30
2019-03-27T14:02:34.630Z,89.10
2019-03-27T14:05:01.973Z,92.40
2019-03-27T14:07:29.192Z,93.70
2019-03-27T14:09:56.378Z,94.40
2019-03-27T14:12:23.861Z,97.40
2019-03-27T14:14:51.095Z,99.90
2019-03-27T14:17:18.499Z,99.90
2019-03-27T14:19:45.664Z,99.90
2019-03-27T14:22:12.841Z,99.90
2019-03-27T14:24:40.229Z,99.90
2019-03-27T14:27:07.461Z,99.90
2019-03-27T14:29:34.691Z,99.90
2019-03-27T14:32:01.993Z,99.90
2019-03-27T14:34:29.184Z,99.90
2019-03-27T14:36:56.473Z,99.90
2019-03-27T14:39:23.622Z,99.90
2019-03-27T14:41:50.801Z,99.90
2019-03-27T14:44:18.012Z,99.90
2019-03-27T14:46:45.181Z,99.90
2019-03-27T14:49:12.422Z,99.90
2019-03-27T14:51:39.573Z,99.90
2019-03-27T14:54:06.741Z,99.90
2019-03-27T14:56:33.904Z,99.90
2019-03-27T14:59:01.073Z,99.90
2019-03-27T15:01:28.270Z,99.50
2019-03-27T15:03:55.536Z,98.20
2019-03-27T15:06:22.932Z,96.50
2019-03-27T15:08:50.256Z,94.40
2019-03-27T15:11:17.495Z,93.10
2019-03-27T15:13:44.907Z,91.60
2019-03-27T15:16:12.098Z,90.70
2019-03-27T15:18:39.292Z,91.60
2019-03-27T15:21:06.889Z,90.20
2019-03-27T15:23:34.308Z,87.10
2019-03-27T15:26:01.521Z,85.70
2019-03-27T15:28:29.013Z,84.70
2019-03-27T15:30:56.229Z,82.70
2019-03-27T15:33:23.409Z,83.30
2019-03-27T15:35:50.613Z,82.10
2019-03-27T15:38:17.889Z,82.50
2019-03-27T15:40:45.709Z,83.40
2019-03-27T15:43:12.931Z,83.50
2019-03-27T15:45:40.425Z,83.30
2019-03-27T15:48:07.717Z,84.20
2019-03-27T15:50:34.997Z,82.00
2019-03-27T15:53:02.197Z,80.90
2019-03-27T15:55:29.413Z,79.80
2019-03-27T15:57:56.590Z,80.10
2019-03-27T16:00:24.000Z,80.70
2019-03-27T16:02:51.188Z,80.10
2019-03-27T16:05:18.466Z,80.80
2019-03-27T16:07:45.741Z,80.70
2019-03-27T16:10:13.361Z,81.10
2019-03-27T16:12:40.682Z,80.40
2019-03-27T16:15:09.271Z,80.00
2019-03-27T16:17:36.453Z,79.90
2019-03-27T16:20:04.149Z,80.00
2019-03-27T16:22:31.480Z,79.90
2019-03-27T16:24:58.721Z,79.30
2019-03-27T16:27:25.908Z,79.60
2019-03-27T16:29:53.115Z,80.40
2019-03-27T16:32:20.540Z,80.00
2019-03-27T16:34:47.809Z,80.20
2019-03-27T16:37:15.057Z,82.00
2019-03-27T16:39:42.277Z,83.10
2019-03-27T16:42:09.599Z,83.60
2019-03-27T16:44:36.825Z,83.70
2019-03-27T16:47:04.472Z,84.40
2019-03-27T16:49:31.734Z,84.50
2019-03-27T16:51:59.078Z,85.30
2019-03-27T16:54:26.365Z,85.60
2019-03-27T16:56:53.655Z,86.20
2019-03-27T16:59:20.952Z,86.70
2019-03-27T17:01:48.452Z,87.30
2019-03-27T17:04:15.768Z,87.40
2019-03-27T17:06:43.179Z,87.80
2019-03-27T17:09:10.535Z,87.80
2019-03-27T17:11:37.822Z,87.40
2019-03-27T17:14:05.231Z,87.70
2019-03-27T17:16:32.419Z,87.70
2019-03-27T17:19:01.343Z,87.40
2019-03-27T17:21:28.877Z,87.80
2019-03-27T17:23:56.261Z,87.80
2019-03-27T17:26:23.671Z,88.60
2019-03-27T17:28:50.989Z,88.00
2019-03-27T17:31:18.309Z,89.90
2019-03-27T17:33:45.960Z,91.10
2019-03-27T17:36:13.331Z,91.30
2019-03-27T17:38:40.814Z,91.20
2019-03-27T17:41:08.197Z,90.90
2019-03-27T17:43:35.404Z,92.80
2019-03-27T17:46:02.742Z,93.00
2019-03-27T17:48:30.049Z,92.60
2019-03-27T17:50:57.467Z,92.00
2019-03-27T17:53:31.730Z,91.70
2019-03-27T17:55:53.992Z,91.60
2019-03-27T17:58:21.306Z,91.30
2019-03-27T18:00:51.432Z,90.70
2019-03-27T18:03:18.796Z,90.70
2019-03-27T18:05:45.984Z,91.20
2019-03-27T18:08:14.685Z,91.00
2019-03-27T18:10:43.993Z,90.70
2019-03-27T18:13:12.280Z,90.70
2019-03-27T18:15:41.086Z,90.70
2019-03-27T18:18:09.544Z,91.00
2019-03-27T18:20:38.330Z,91.10
2019-03-27T18:23:06.743Z,91.30
2019-03-27T18:25:35.556Z,91.70
2019-03-27T18:28:04.795Z,91.80
2019-03-27T18:30:33.304Z,92.60
2019-03-27T18:33:02.525Z,94.80
2019-03-27T18:35:30.802Z,95.50
2019-03-27T18:37:58.056Z,95.80
2019-03-27T18:40:25.305Z,96.40
2019-03-27T18:42:52.672Z,96.60
2019-03-27T18:45:20.017Z,98.00
2019-03-27T18:47:47.637Z,99.60
2019-03-27T18:50:15.936Z,99.90
2019-03-27T18:52:43.141Z,99.90
2019-03-27T18:55:10.752Z,99.90
2019-03-27T18:57:37.946Z,99.90
2019-03-27T19:00:05.845Z,99.90
2019-03-27T19:02:33.243Z,99.90
2019-03-27T19:05:00.554Z,99.90
2019-03-27T19:07:27.819Z,99.90
2019-03-27T19:09:55.106Z,99.90
2019-03-27T19:12:22.384Z,99.90
2019-03-27T19:14:49.578Z,99.90
2019-03-27T19:17:16.723Z,99.90
2019-03-27T19:19:43.963Z,99.90
2019-03-27T19:22:11.192Z,99.90
2019-03-27T19:24:38.689Z,99.90
2019-03-27T19:27:06.005Z,99.90
2019-03-27T19:29:33.579Z,99.90
2019-03-27T19:32:00.825Z,99.90
2019-03-27T19:34:28.108Z,99.90
2019-03-27T19:36:55.632Z,99.90
2019-03-27T19:39:23.327Z,99.90
2019-03-27T19:41:51.383Z,99.90
2019-03-27T19:44:18.864Z,99.90
2019-03-27T19:46:46.490Z,99.90
2019-03-27T19:49:14.726Z,99.90
2019-03-27T19:51:42.192Z,99.90
2019-03-27T19:54:09.622Z,99.90
2019-03-27T19:56:37.219Z,99.90
2019-03-27T19:59:04.708Z,99.90
2019-03-27T20:01:32.254Z,99.90
2019-03-27T20:03:59.911Z,99.90
2019-03-27T20:06:27.594Z,99.90
2019-03-27T20:08:56.900Z,99.90
2019-03-27T20:11:24.550Z,99.90
2019-03-27T20:13:52.253Z,99.90
2019-03-27T20:16:19.669Z,99.90
2019-03-27T20:18:47.178Z,99.90
2019-03-27T20:21:14.738Z,99.90
2019-03-27T20:23:42.366Z,99.90
2019-03-27T20:26:09.718Z,99.90
2019-03-27T20:28:37.381Z,99.90
2019-03-27T20:31:04.834Z,99.90
2019-03-27T20:33:32.218Z,99.90
2019-03-27T20:35:59.701Z,99.90
2019-03-27T20:38:26.953Z,99.90
2019-03-27T20:40:54.375Z,99.90
2019-03-27T20:43:22.015Z,99.90
2019-03-27T20:45:49.617Z,99.90
2019-03-27T20:48:16.896Z,99.90
2019-03-27T20:50:44.368Z,99.90
2019-03-27T20:53:11.971Z,99.90
2019-03-27T20:55:39.585Z,99.90
2019-03-27T20:58:07.300Z,99.90
2019-03-27T21:00:35.252Z,99.90
2019-03-27T21:03:02.793Z,99.90
2019-03-27T21:05:35.136Z,99.90
2019-03-27T21:08:02.067Z,99.90
2019-03-27T21:10:29.302Z,99.90
2019-03-27T21:12:56.695Z,99.90
2019-03-27T21:15:23.873Z,99.90
2019-03-27T21:17:51.041Z,99.90
2019-03-27T21:20:18.209Z,99.90
2019-03-27T21:22:45.405Z,99.90
2019-03-27T21:25:12.682Z,99.90
2019-03-27T21:27:40.012Z,99.90
2019-03-27T21:30:11.165Z,99.90
2019-03-27T21:32:38.492Z,99.90
2019-03-27T21:35:06.987Z,99.90
2019-03-27T21:37:34.368Z,99.90
2019-03-27T21:40:01.571Z,99.90
2019-03-27T21:42:28.735Z,99.90
2019-03-27T21:44:56.022Z,99.90
2019-03-27T21:47:23.201Z,99.90
2019-03-27T21:49:50.380Z,99.90
2019-03-27T21:52:17.583Z,99.90
2019-03-27T21:54:44.783Z,99.90
2019-03-27T21:57:11.997Z,99.90
2019-03-27T21:59:39.395Z,99.90
2019-03-27T22:02:07.110Z,99.90
2019-03-27T22:04:34.453Z,99.90
2019-03-27T22:07:01.793Z,99.90
2019-03-27T22:09:28.987Z,99.90
2019-03-27T22:11:56.160Z,99.90
2019-03-27T22:14:23.308Z,99.90
2019-03-27T22:16:50.516Z,99.90
2019-03-27T22:19:18.047Z,99.90
2019-03-27T22:21:45.203Z,99.90
2019-03-27T22:24:12.633Z,99.90
2019-03-27T22:26:39.829Z,99.90
2019-03-27T22:29:07.085Z,99.90
2019-03-27T22:31:34.277Z,99.90
2019-03-27T22:34:01.523Z,99.90
2019-03-27T22:36:28.729Z,99.90
2019-03-27T22:38:56.904Z,99.90
2019-03-27T22:41:24.454Z,99.90
2019-03-27T22:43:51.773Z,99.90
2019-03-27T22:46:19.064Z,99.90
2019-03-27T22:48:46.365Z,99.90
2019-03-27T22:51:13.659Z,99.90
2019-03-27T22:53:40.792Z,99.90
2019-03-27T22:56:08.036Z,99.90
2019-03-27T22:58:35.289Z,99.90
2019-03-27T23:01:02.752Z,99.90
2019-03-27T23:03:29.996Z,99.90
2019-03-27T23:05:58.221Z,99.90
2019-03-27T23:08:25.431Z,99.90
2019-03-27T23:10:52.620Z,99.90
2019-03-27T23:13:19.836Z,99.90
2019-03-27T23:15:47.109Z,99.90
2019-03-27T23:18:14.403Z,99.90
2019-03-27T23:20:41.606Z,99.90
2019-03-27T23:23:08.780Z,99.90
2019-03-27T23:25:36.013Z,99.90
2019-03-27T23:28:15.535Z,99.90
2019-03-27T23:30:44.034Z,99.90
2019-03-27T23:33:11.237Z,99.90
2019-03-27T23:35:38.508Z,99.90
2019-03-27T23:38:05.692Z,99.90
2019-03-27T23:40:32.830Z,99.90
2019-03-27T23:43:00.012Z,99.90
2019-03-27T23:45:27.481Z,99.90
2019-03-27T23:47:54.626Z,99.90
2019-03-27T23:50:21.842Z,99.90
2019-03-27T23:52:50.691Z,99.90
2019-03-27T23:55:17.914Z,99.90
2019-03-27T23:57:45.559Z,99.90
